Time;durP1;ratioP1;P1;durP2;ratioP2;P2;SDS_P1;SDS_P2;PMS_P1;PMS_P2;Temp;Humidity;BMP_temperature;BMP_pressure;BME280_temperature;BME280_humidity;BME280_pressure;Samples;Min_cycle;Max_cycle;Signal;HPM_P1;HPM_P2
2023/08/13 00:01:57;;;;;;;9.13;2.87;;;;;;;-145.14;100.00;70583.66;5010367;28;20180;-74
2023/08/13 00:04:22;;;;;;;7.17;2.50;;;;;;;-145.14;100.00;70583.66;5009808;28;20199;-74
2023/08/13 00:06:47;;;;;;;8.73;3.07;;;;;;;-145.14;100.00;70583.66;5009283;28;20251;-73
2023/08/13 00:09:13;;;;;;;11.60;2.50;;;;;;;-145.14;100.00;70583.66;5013096;28;20185;-74
2023/08/13 00:11:38;;;;;;;9.30;3.00;;;;;;;-145.14;100.00;70583.66;5011254;28;20201;-74
2023/08/13 00:14:04;;;;;;;8.50;2.50;;;;;;;-145.14;100.00;70583.66;5009519;28;20247;-73
2023/08/13 00:16:29;;;;;;;11.85;2.40;;;;;;;-145.14;100.00;70583.66;5009780;28;20201;-73
2023/08/13 00:18:55;;;;;;;7.67;2.83;;;;;;;-145.14;100.00;70583.66;5009462;28;20668;-73
2023/08/13 00:21:20;;;;;;;5.47;2.10;;;;;;;-145.14;100.00;70583.66;5006851;28;20203;-73
2023/08/13 00:23:45;;;;;;;8.83;2.90;;;;;;;-145.14;100.00;70583.66;5010436;28;20195;-73
2023/08/13 00:26:11;;;;;;;6.55;2.25;;;;;;;-145.14;100.00;70583.66;5009660;28;20216;-74
2023/08/13 00:28:36;;;;;;;5.25;1.90;;;;;;;-145.14;100.00;70583.66;5009974;28;20189;-73
2023/08/13 00:31:02;;;;;;;8.83;2.60;;;;;;;-145.14;100.00;70583.66;5021660;28;20595;-74
2023/08/13 00:33:27;;;;;;;8.73;2.93;;;;;;;-145.14;100.00;70583.66;5009809;28;20644;-74
2023/08/13 00:35:53;;;;;;;8.05;2.20;;;;;;;-145.14;100.00;70583.66;5010185;28;20632;-73
2023/08/13 00:38:18;;;;;;;6.27;2.00;;;;;;;-145.14;100.00;70583.66;5008662;28;20227;-74
2023/08/13 00:40:44;;;;;;;9.30;2.30;;;;;;;-145.14;100.00;70583.66;5012013;28;20570;-74
2023/08/13 00:43:09;;;;;;;9.37;3.07;;;;;;;-145.14;100.00;70583.66;5013807;28;20189;-74
2023/08/13 00:45:35;;;;;;;6.20;1.90;;;;;;;-145.14;100.00;70583.66;5009716;28;20185;-73
2023/08/13 00:48:02;;;;;;;5.83;1.90;;;;;;;-145.14;100.00;70583.66;5019296;28;20201;-74
2023/08/13 00:50:28;;;;;;;9.47;2.30;;;;;;;-145.14;100.00;70583.66;5008305;28;20438;-74
2023/08/13 00:52:54;;;;;;;9.90;2.23;;;;;;;-145.14;100.00;70583.66;5011212;28;20467;-74
2023/08/13 00:55:19;;;;;;;6.60;1.93;;;;;;;-145.14;100.00;70583.66;5010383;28;20458;-73
2023/08/13 00:57:45;;;;;;;8.10;2.80;;;;;;;-145.14;100.00;70583.66;5008992;28;20197;-74
2023/08/13 01:00:11;;;;;;;5.87;1.90;;;;;;;-145.14;100.00;70583.66;5010077;28;20197;-73
2023/08/13 01:02:38;;;;;;;7.27;2.37;;;;;;;-145.14;100.00;70583.66;5010309;28;21150;-74
2023/08/13 01:05:05;;;;;;;7.60;2.07;;;;;;;-145.14;100.00;70583.66;5010582;28;20552;-73
2023/08/13 01:07:46;;;;;;;5.93;2.30;;;;;;;-145.14;100.00;70583.66;5008106;28;20463;-74
2023/08/13 01:10:29;;;;;;;7.37;1.80;;;;;;;-145.14;100.00;70583.66;5011256;28;20460;-73
2023/08/13 01:13:14;;;;;;;7.93;2.40;;;;;;;-145.14;100.00;70583.66;5008942;28;20456;-73
2023/08/13 01:15:43;;;;;;;5.93;1.70;;;;;;;-145.14;100.00;70583.66;5008242;28;20446;-73
2023/08/13 01:18:10;;;;;;;8.83;2.47;;;;;;;-145.14;100.00;70583.66;5011454;28;20454;-74
2023/08/13 01:20:37;;;;;;;9.75;2.10;;;;;;;-145.14;100.00;70583.66;5009429;28;20443;-73
2023/08/13 01:23:03;;;;;;;8.27;2.20;;;;;;;-145.14;100.00;70583.66;5008751;28;20460;-73
2023/08/13 01:25:29;;;;;;;9.17;2.20;;;;;;;-145.14;100.00;70583.66;5008185;28;20447;-74
2023/08/13 01:28:23;;;;;;;4.80;1.70;;;;;;;-145.14;100.00;70583.66;5006896;28;20514;-73
2023/08/13 01:30:52;;;;;;;5.63;2.20;;;;;;;-145.14;100.00;70583.66;5016211;28;20448;-73
2023/08/13 01:33:26;;;;;;;7.30;2.10;;;;;;;-145.14;100.00;70583.66;5006688;28;20494;-73
2023/08/13 01:35:57;;;;;;;7.23;1.97;;;;;;;-145.14;100.00;70583.66;5009217;28;20439;-74
2023/08/13 01:38:23;;;;;;;7.33;2.30;;;;;;;-145.14;100.00;70583.66;5017971;28;20494;-74
2023/08/13 01:40:50;;;;;;;6.07;2.17;;;;;;;-145.14;100.00;70583.66;5011055;28;20515;-74
2023/08/13 01:43:16;;;;;;;6.30;2.13;;;;;;;-145.14;100.00;70583.66;5010269;28;20467;-74
2023/08/13 01:45:41;;;;;;;7.63;1.87;;;;;;;-145.14;100.00;70583.66;5012868;28;20534;-74
2023/08/13 01:48:07;;;;;;;8.97;2.13;;;;;;;-145.14;100.00;70583.66;5013799;28;20211;-73
2023/08/13 01:50:32;;;;;;;5.57;1.80;;;;;;;-145.14;100.00;70583.66;5012172;28;20278;-73
2023/08/13 01:52:58;;;;;;;9.10;2.87;;;;;;;-145.14;100.00;70583.66;5012593;28;20180;-73
2023/08/13 01:55:23;;;;;;;7.50;2.03;;;;;;;-145.14;100.00;70583.66;5014594;28;20199;-73
2023/08/13 01:57:49;;;;;;;7.40;2.20;;;;;;;-145.14;100.00;70583.66;5013117;28;20201;-74
2023/08/13 02:00:15;;;;;;;6.20;2.40;;;;;;;-145.14;100.00;70583.66;5014845;28;20184;-73
2023/08/13 02:02:40;;;;;;;6.30;2.15;;;;;;;-145.14;100.00;70583.66;5011355;28;20185;-73
2023/08/13 02:05:07;;;;;;;7.20;2.20;;;;;;;-145.14;100.00;70583.66;5010599;28;21366;-74
2023/08/13 02:07:32;;;;;;;4.47;2.47;;;;;;;-145.14;100.00;70583.66;5016313;28;20209;-73
2023/08/13 02:09:58;;;;;;;7.77;2.33;;;;;;;-145.14;100.00;70583.66;5013789;28;20436;-74
2023/08/13 02:12:23;;;;;;;11.00;2.60;;;;;;;-145.14;100.00;70583.66;5012249;28;20189;-73
2023/08/13 02:14:49;;;;;;;8.83;2.20;;;;;;;-145.14;100.00;70583.66;5011148;28;20688;-73
2023/08/13 02:17:14;;;;;;;8.83;1.90;;;;;;;-145.14;100.00;70583.66;5009262;28;20205;-74
2023/08/13 02:19:40;;;;;;;10.73;2.53;;;;;;;-145.14;100.00;70583.66;5010720;28;20216;-74
2023/08/13 02:22:07;;;;;;;5.97;2.30;;;;;;;-145.14;100.00;70583.66;5014394;28;20212;-74
2023/08/13 02:24:33;;;;;;;5.93;2.10;;;;;;;-145.14;100.00;70583.66;5012782;28;20440;-73
2023/08/13 02:26:58;;;;;;;8.30;2.47;;;;;;;-145.14;100.00;70583.66;5010539;28;20486;-73
2023/08/13 02:29:24;;;;;;;7.00;2.47;;;;;;;-145.14;100.00;70583.66;5012222;28;20440;-73
2023/08/13 02:31:49;;;;;;;10.00;2.70;;;;;;;-145.14;100.00;70583.66;5011565;28;20185;-72
2023/08/13 02:34:15;;;;;;;6.63;2.33;;;;;;;-145.14;100.00;70583.66;5013611;28;20188;-73
2023/08/13 02:36:40;;;;;;;9.35;2.75;;;;;;;-145.14;100.00;70583.66;5011905;28;20216;-73
2023/08/13 02:39:06;;;;;;;9.97;2.37;;;;;;;-145.14;100.00;70583.66;5011481;28;20195;-74
2023/08/13 02:41:31;;;;;;;5.57;2.00;;;;;;;-145.14;100.00;70583.66;5010163;28;20193;-73
2023/08/13 02:43:57;;;;;;;8.20;2.25;;;;;;;-145.14;100.00;70583.66;5010923;28;20177;-72
2023/08/13 02:46:25;;;;;;;5.40;1.97;;;;;;;-145.14;100.00;70583.66;5009928;28;20223;-73
2023/08/13 02:48:54;;;;;;;10.03;2.47;;;;;;;-145.14;100.00;70583.66;5010080;28;20664;-73
2023/08/13 02:51:20;;;;;;;6.97;1.93;;;;;;;-145.14;100.00;70583.66;5017768;28;20432;-73
2023/08/13 02:53:45;;;;;;;11.03;3.00;;;;;;;-145.14;100.00;70583.66;5009605;28;20990;-73
2023/08/13 02:56:10;;;;;;;8.90;2.75;;;;;;;-145.14;100.00;70583.66;5007895;28;20464;-73
2023/08/13 02:58:36;;;;;;;9.35;2.20;;;;;;;-145.14;100.00;70583.66;5009521;28;20600;-73
2023/08/13 03:01:02;;;;;;;13.23;2.90;;;;;;;-145.14;100.00;70583.66;5011554;28;20230;-73
2023/08/13 03:03:27;;;;;;;10.90;2.85;;;;;;;-145.14;100.00;70583.66;5021067;28;20193;-73
2023/08/13 03:05:53;;;;;;;8.55;2.80;;;;;;;-145.14;100.00;70583.66;5013548;28;20440;-72
2023/08/13 03:08:19;;;;;;;9.60;2.47;;;;;;;-145.14;100.00;70583.66;5012654;28;20202;-73
2023/08/13 03:10:44;;;;;;;7.00;2.17;;;;;;;-145.14;100.00;70583.66;5012958;28;20196;-72
2023/08/13 03:13:10;;;;;;;7.17;1.67;;;;;;;-145.14;100.00;70583.66;5011177;28;20658;-73
2023/08/13 03:15:35;;;;;;;13.75;3.35;;;;;;;-145.14;100.00;70583.66;5011900;28;20234;-73
2023/08/13 03:18:01;;;;;;;8.40;2.83;;;;;;;-145.14;100.00;70583.66;5011724;28;20287;-73
2023/08/13 03:20:26;;;;;;;8.80;2.23;;;;;;;-145.14;100.00;70583.66;5014622;28;20188;-72
2023/08/13 03:22:52;;;;;;;5.70;2.13;;;;;;;-145.14;100.00;70583.66;5012331;28;20564;-73
2023/08/13 03:25:18;;;;;;;9.63;2.93;;;;;;;-145.14;100.00;70583.66;5009059;28;20189;-73
2023/08/13 03:27:43;;;;;;;13.10;3.27;;;;;;;-145.14;100.00;70583.66;5012987;28;20479;-73
2023/08/13 03:30:09;;;;;;;4.37;2.03;;;;;;;-145.14;100.00;70583.66;5011318;28;20267;-73
2023/08/13 03:32:36;;;;;;;10.30;2.50;;;;;;;-145.14;100.00;70583.66;5010503;28;20193;-73
2023/08/13 03:35:01;;;;;;;6.63;2.60;;;;;;;-145.14;100.00;70583.66;5011931;28;20188;-73
2023/08/13 03:37:27;;;;;;;10.90;2.73;;;;;;;-145.14;100.00;70583.66;5009075;28;20485;-73
2023/08/13 03:39:52;;;;;;;10.03;2.23;;;;;;;-145.14;100.00;70583.66;5011698;28;20199;-73
2023/08/13 03:42:17;;;;;;;7.17;2.67;;;;;;;-145.14;100.00;70583.66;5013350;28;20216;-73
2023/08/13 03:44:43;;;;;;;8.80;3.27;;;;;;;-145.14;100.00;70583.66;5014477;28;20212;-73
2023/08/13 03:47:09;;;;;;;14.73;3.30;;;;;;;-145.14;100.00;70583.66;5010733;28;20907;-73
2023/08/13 03:49:35;;;;;;;6.97;2.60;;;;;;;-145.14;100.00;70583.66;5011143;28;20192;-73
2023/08/13 03:52:00;;;;;;;13.80;4.20;;;;;;;-145.14;100.00;70583.66;5018859;28;20556;-72
2023/08/13 03:54:26;;;;;;;6.40;2.00;;;;;;;-145.14;100.00;70583.66;5011632;28;20444;-73
2023/08/13 03:56:51;;;;;;;9.53;2.80;;;;;;;-145.14;100.00;70583.66;5011078;28;20673;-73
2023/08/13 03:59:17;;;;;;;12.00;2.53;;;;;;;-145.14;100.00;70583.66;5010668;28;20192;-73
2023/08/13 04:01:42;;;;;;;13.10;3.80;;;;;;;-145.14;100.00;70583.66;5020686;28;20275;-74
2023/08/13 04:04:08;;;;;;;10.17;2.40;;;;;;;-145.14;100.00;70583.66;5009027;28;20534;-73
2023/08/13 04:06:33;;;;;;;10.20;2.47;;;;;;;-145.14;100.00;70583.66;5008957;28;20799;-72
2023/08/13 04:08:59;;;;;;;10.60;3.23;;;;;;;-145.14;100.00;70583.66;5010324;28;20307;-73
2023/08/13 04:11:24;;;;;;;11.00;2.93;;;;;;;-145.14;100.00;70583.66;5008467;28;20247;-74
2023/08/13 04:13:50;;;;;;;12.63;3.10;;;;;;;-145.14;100.00;70583.66;5008389;28;20196;-73
2023/08/13 04:16:15;;;;;;;14.23;3.17;;;;;;;-145.14;100.00;70583.66;5013090;28;20270;-74
2023/08/13 04:18:40;;;;;;;12.07;3.17;;;;;;;-145.14;100.00;70583.66;5009806;28;20208;-73
2023/08/13 04:21:06;;;;;;;7.93;2.33;;;;;;;-145.14;100.00;70583.66;5011217;28;20189;-73
2023/08/13 04:23:31;;;;;;;8.20;2.30;;;;;;;-145.14;100.00;70583.66;5011221;28;20562;-73
2023/08/13 04:25:57;;;;;;;7.77;2.40;;;;;;;-145.14;100.00;70583.66;5008555;28;20258;-73
2023/08/13 04:28:22;;;;;;;10.87;3.23;;;;;;;-145.14;100.00;70583.66;5010309;28;20199;-73
2023/08/13 04:30:48;;;;;;;9.80;2.30;;;;;;;-145.14;100.00;70583.66;5006476;28;20196;-73
2023/08/13 04:33:13;;;;;;;7.83;2.47;;;;;;;-145.14;100.00;70583.66;5008536;28;20196;-73
2023/08/13 04:35:39;;;;;;;11.23;2.90;;;;;;;-145.14;100.00;70583.66;5008417;28;20211;-73
2023/08/13 04:38:04;;;;;;;9.63;2.77;;;;;;;-145.14;100.00;70583.66;5009365;28;20212;-74
2023/08/13 04:40:30;;;;;;;11.43;2.40;;;;;;;-145.14;100.00;70583.66;5008616;28;20201;-73
2023/08/13 04:42:55;;;;;;;8.93;2.40;;;;;;;-145.14;100.00;70583.66;5008007;28;20250;-73
2023/08/13 04:45:20;;;;;;;8.80;2.83;;;;;;;-145.14;100.00;70583.66;5016197;28;20212;-73
2023/08/13 04:47:46;;;;;;;11.00;2.60;;;;;;;-145.14;100.00;70583.66;5009550;28;20220;-73
2023/08/13 04:50:13;;;;;;;12.70;2.57;;;;;;;-145.14;100.00;70583.66;5010623;28;20576;-73
2023/08/13 04:52:38;;;;;;;9.03;2.60;;;;;;;-145.14;100.00;70583.66;5008997;28;20208;-73
2023/08/13 04:55:04;;;;;;;14.53;3.40;;;;;;;-145.14;100.00;70583.66;5009034;28;20455;-73
2023/08/13 04:57:30;;;;;;;8.70;2.60;;;;;;;-145.14;100.00;70583.66;5009295;28;20300;-73
2023/08/13 04:59:55;;;;;;;18.20;3.60;;;;;;;-145.14;100.00;70583.66;5008203;28;20479;-72
2023/08/13 05:02:21;;;;;;;8.20;2.85;;;;;;;-145.14;100.00;70583.66;5011297;28;20185;-73
2023/08/13 05:04:46;;;;;;;11.77;3.53;;;;;;;-145.14;100.00;70583.66;5010366;28;20568;-73
2023/08/13 05:07:11;;;;;;;14.83;3.10;;;;;;;-145.14;100.00;70583.66;5009577;28;20220;-73
2023/08/13 05:09:37;;;;;;;10.20;3.70;;;;;;;-145.14;100.00;70583.66;5008814;28;20189;-73
2023/08/13 05:12:02;;;;;;;11.87;3.30;;;;;;;-145.14;100.00;70583.66;5012490;28;20569;-73
2023/08/13 05:14:28;;;;;;;11.30;3.40;;;;;;;-145.14;100.00;70583.66;5009752;28;20854;-74
2023/08/13 05:16:54;;;;;;;11.23;3.37;;;;;;;-145.14;100.00;70583.66;5010966;28;20246;-73
2023/08/13 05:19:19;;;;;;;8.50;3.07;;;;;;;-145.14;100.00;70583.66;5010465;28;20181;-73
2023/08/13 05:21:45;;;;;;;10.10;3.10;;;;;;;-145.14;100.00;70583.66;5011874;28;20439;-73
2023/08/13 05:24:10;;;;;;;12.70;3.67;;;;;;;-145.14;100.00;70583.66;5009867;28;20185;-72
2023/08/13 05:26:36;;;;;;;11.13;3.20;;;;;;;-145.14;100.00;70583.66;5009309;28;20227;-73
2023/08/13 05:29:01;;;;;;;9.60;3.17;;;;;;;-145.14;100.00;70583.66;5009895;28;20195;-73
2023/08/13 05:31:27;;;;;;;9.40;2.70;;;;;;;-145.14;100.00;70583.66;5009865;28;20196;-72
2023/08/13 05:33:53;;;;;;;11.23;3.10;;;;;;;-145.14;100.00;70583.66;5010834;28;20606;-73
2023/08/13 05:36:19;;;;;;;9.25;3.05;;;;;;;-145.14;100.00;70583.66;5012298;28;20258;-73
2023/08/13 05:38:44;;;;;;;8.47;3.20;;;;;;;-145.14;100.00;70583.66;5011248;28;20450;-73
2023/08/13 05:41:10;;;;;;;11.95;3.55;;;;;;;-145.14;100.00;70583.66;5006525;28;20200;-73
2023/08/13 05:43:35;;;;;;;9.57;3.60;;;;;;;-145.14;100.00;70583.66;5007558;28;20200;-72
2023/08/13 05:46:01;;;;;;;12.33;3.10;;;;;;;-145.14;100.00;70583.66;5007901;28;20207;-73
2023/08/13 05:48:26;;;;;;;9.77;3.13;;;;;;;-145.14;100.00;70583.66;5009042;28;20192;-73
2023/08/13 05:50:52;;;;;;;11.23;3.60;;;;;;;-145.14;100.00;70583.66;5008951;28;20194;-73
2023/08/13 05:53:17;;;;;;;11.27;2.87;;;;;;;-145.14;100.00;70583.66;5009377;28;20264;-73
2023/08/13 05:55:43;;;;;;;9.87;3.50;;;;;;;-145.14;100.00;70583.66;5009022;28;20196;-73
2023/08/13 05:58:08;;;;;;;7.90;3.17;;;;;;;-145.14;100.00;70583.66;5007783;28;20215;-73
2023/08/13 06:00:33;;;;;;;15.70;3.27;;;;;;;-145.14;100.00;70583.66;5007222;28;20193;-73
2023/08/13 06:02:59;;;;;;;12.70;3.27;;;;;;;-145.14;100.00;70583.66;5010825;28;20185;-73
2023/08/13 06:05:24;;;;;;;7.60;2.70;;;;;;;-145.14;100.00;70583.66;5008571;28;20181;-73
2023/08/13 06:07:50;;;;;;;6.77;2.77;;;;;;;-145.14;100.00;70583.66;5009043;28;20300;-73
2023/08/13 06:10:15;;;;;;;9.77;3.13;;;;;;;-145.14;100.00;70583.66;5011001;28;20278;-73
2023/08/13 06:12:41;;;;;;;11.83;3.30;;;;;;;-145.14;100.00;70583.66;5008527;28;20347;-73
2023/08/13 06:15:06;;;;;;;13.37;3.43;;;;;;;-145.14;100.00;70583.66;5005614;28;20193;-73
2023/08/13 06:17:32;;;;;;;8.37;2.90;;;;;;;-145.14;100.00;70583.66;5014144;28;20235;-74
2023/08/13 06:20:00;;;;;;;10.70;2.70;;;;;;;-145.14;100.00;70583.66;5007551;28;20192;-73
2023/08/13 06:22:25;;;;;;;12.20;4.20;;;;;;;-145.14;100.00;70583.66;5007124;28;20601;-72
2023/08/13 06:24:50;;;;;;;7.23;2.97;;;;;;;-145.14;100.00;70583.66;5000702;28;20448;-72
2023/08/13 06:27:16;;;;;;;12.83;3.37;;;;;;;-145.14;100.00;70583.66;5005630;28;20689;-73
2023/08/13 06:29:41;;;;;;;11.33;3.10;;;;;;;-145.14;100.00;70583.66;5007040;28;20190;-73
2023/08/13 06:32:07;;;;;;;6.37;2.57;;;;;;;-145.14;100.00;70583.66;5012346;28;20250;-73
2023/08/13 06:34:32;;;;;;;12.63;3.17;;;;;;;-145.14;100.00;70583.66;5010212;28;20369;-72
2023/08/13 06:36:58;;;;;;;8.03;3.27;;;;;;;-145.14;100.00;70583.66;5007698;28;21138;-72
2023/08/13 06:39:23;;;;;;;7.20;2.50;;;;;;;-145.14;100.00;70583.66;5011452;28;20213;-73
2023/08/13 06:41:49;;;;;;;10.53;3.53;;;;;;;-145.14;100.00;70583.66;5010542;28;20192;-73
2023/08/13 06:44:19;;;;;;;12.10;4.33;;;;;;;-145.14;100.00;70583.66;5010056;28;20185;-73
2023/08/13 06:46:48;;;;;;;10.33;2.63;;;;;;;-145.14;100.00;70583.66;5012944;28;20219;-72
2023/08/13 06:49:13;;;;;;;11.33;2.80;;;;;;;-145.14;100.00;70583.66;5008952;28;20439;-72
2023/08/13 06:51:39;;;;;;;9.70;3.30;;;;;;;-145.14;100.00;70583.66;5013186;28;20417;-72
2023/08/13 06:54:05;;;;;;;11.77;3.30;;;;;;;-145.14;100.00;70583.66;5011966;28;20701;-74
2023/08/13 06:56:31;;;;;;;7.07;2.60;;;;;;;-145.14;100.00;70583.66;5012730;28;20700;-71
2023/08/13 06:58:56;;;;;;;8.00;2.73;;;;;;;-145.14;100.00;70583.66;5008744;28;20448;-73
2023/08/13 07:01:22;;;;;;;10.33;3.93;;;;;;;-145.14;100.00;70583.66;5020298;28;20195;-73
2023/08/13 07:03:47;;;;;;;12.30;3.53;;;;;;;-145.14;100.00;70583.66;5008355;28;20284;-74
2023/08/13 07:06:13;;;;;;;5.80;3.00;;;;;;;-145.14;100.00;70583.66;5008396;28;20219;-74
2023/08/13 07:08:38;;;;;;;13.33;3.70;;;;;;;-145.14;100.00;70583.66;5010685;28;20184;-74
2023/08/13 07:11:04;;;;;;;11.23;3.27;;;;;;;-145.14;100.00;70583.66;5013309;28;20189;-74
2023/08/13 07:13:30;;;;;;;14.03;4.10;;;;;;;-145.14;100.00;70583.66;5008968;28;20191;-74
2023/08/13 07:15:55;;;;;;;12.67;3.13;;;;;;;-145.14;100.00;70583.66;5010783;28;20203;-74
2023/08/13 07:18:21;;;;;;;10.77;3.90;;;;;;;-145.14;100.00;70583.66;5010072;28;20747;-73
2023/08/13 07:20:47;;;;;;;8.35;2.65;;;;;;;-145.14;100.00;70583.66;5007622;28;20188;-75
2023/08/13 07:23:12;;;;;;;12.30;3.40;;;;;;;-145.14;100.00;70583.66;5009524;28;20320;-74
2023/08/13 07:25:38;;;;;;;12.60;4.30;;;;;;;-145.14;100.00;70583.66;5012414;28;20188;-74
2023/08/13 07:28:06;;;;;;;9.53;4.10;;;;;;;-145.14;100.00;70583.66;5015694;28;20216;-75
2023/08/13 07:30:31;;;;;;;14.30;3.80;;;;;;;-145.14;100.00;70583.66;5012573;28;20279;-73
2023/08/13 07:32:57;;;;;;;12.27;3.73;;;;;;;-145.14;100.00;70583.66;5010190;28;20471;-75
2023/08/13 07:35:22;;;;;;;10.17;3.70;;;;;;;-145.14;100.00;70583.66;5009533;28;20197;-75
2023/08/13 07:37:48;;;;;;;10.23;3.73;;;;;;;-145.14;100.00;70583.66;5010940;28;20280;-75
2023/08/13 07:40:13;;;;;;;10.50;3.30;;;;;;;-145.14;100.00;70583.66;5011332;28;22220;-74
2023/08/13 07:42:40;;;;;;;11.90;4.00;;;;;;;-145.14;100.00;70583.66;5006609;28;20722;-72
2023/08/13 07:45:06;;;;;;;11.10;4.17;;;;;;;-145.14;100.00;70583.66;5007657;28;20185;-75
2023/08/13 07:47:33;;;;;;;8.77;3.33;;;;;;;-145.14;100.00;70583.66;5002176;28;20487;-74
2023/08/13 07:49:58;;;;;;;10.13;3.23;;;;;;;-145.14;100.00;70583.66;5010593;28;20255;-72
2023/08/13 07:52:24;;;;;;;7.30;3.20;;;;;;;-145.14;100.00;70583.66;5007399;28;21400;-73
2023/08/13 07:54:49;;;;;;;11.77;3.77;;;;;;;-145.14;100.00;70583.66;5004076;28;20682;-73
2023/08/13 07:57:15;;;;;;;9.93;3.00;;;;;;;-145.14;100.00;70583.66;5009592;28;20201;-73
2023/08/13 07:59:40;;;;;;;11.97;2.77;;;;;;;-145.14;100.00;70583.66;5018463;28;20204;-73
2023/08/13 08:02:06;;;;;;;11.70;3.60;;;;;;;-145.14;100.00;70583.66;5003481;28;20212;-72
2023/08/13 08:04:32;;;;;;;9.03;2.70;;;;;;;-145.14;100.00;70583.66;5008013;28;20503;-72
2023/08/13 08:06:58;;;;;;;15.67;3.77;;;;;;;-145.14;100.00;70583.66;5007908;28;20467;-74
2023/08/13 08:09:24;;;;;;;12.30;3.23;;;;;;;-145.14;100.00;70583.66;5010996;28;20623;-73
2023/08/13 08:11:49;;;;;;;14.10;4.10;;;;;;;-145.14;100.00;70583.66;5008919;28;20834;-72
2023/08/13 08:14:15;;;;;;;9.00;3.30;;;;;;;-145.14;100.00;70583.66;5011993;28;20196;-73
2023/08/13 08:16:40;;;;;;;17.90;5.43;;;;;;;-145.14;100.00;70583.66;5007530;28;20360;-72
2023/08/13 08:19:05;;;;;;;10.17;3.70;;;;;;;-145.14;100.00;70583.66;5019857;28;20275;-73
2023/08/13 08:21:31;;;;;;;9.97;4.40;;;;;;;-145.14;100.00;70583.66;5005577;28;21701;-73
2023/08/13 08:23:57;;;;;;;11.63;3.90;;;;;;;-145.14;100.00;70583.66;5009504;28;20188;-73
2023/08/13 08:26:22;;;;;;;16.00;5.10;;;;;;;-145.14;100.00;70583.66;5009079;28;20217;-73
2023/08/13 08:28:48;;;;;;;12.00;3.70;;;;;;;-145.14;100.00;70583.66;5007371;28;20446;-73
2023/08/13 08:31:14;;;;;;;12.03;3.90;;;;;;;-145.14;100.00;70583.66;5009165;28;20712;-73
2023/08/13 08:33:39;;;;;;;7.60;2.57;;;;;;;-145.14;100.00;70583.66;5006214;28;20633;-73
2023/08/13 08:36:05;;;;;;;9.53;2.80;;;;;;;-145.14;100.00;70583.66;5005029;28;20188;-74
2023/08/13 08:38:30;;;;;;;11.10;3.23;;;;;;;-145.14;100.00;70583.66;5008059;28;20185;-74
2023/08/13 08:40:56;;;;;;;10.50;3.90;;;;;;;-145.14;100.00;70583.66;5012256;28;20184;-74
2023/08/13 08:43:25;;;;;;;9.77;2.70;;;;;;;-145.14;100.00;70583.66;5014920;28;20692;-74
2023/08/13 08:45:51;;;;;;;7.93;2.10;;;;;;;-145.14;100.00;70583.66;5009684;28;20431;-73
2023/08/13 08:48:17;;;;;;;8.43;2.77;;;;;;;-145.14;100.00;70583.66;5002944;28;21042;-74
2023/08/13 08:50:43;;;;;;;9.33;3.80;;;;;;;-145.14;100.00;70583.66;5008291;28;20959;-73
2023/08/13 08:53:10;;;;;;;6.90;2.10;;;;;;;-145.14;100.00;70583.66;5008158;28;20890;-74
2023/08/13 08:55:36;;;;;;;8.60;2.00;;;;;;;-145.14;100.00;70583.66;5014108;28;20447;-73
2023/08/13 08:58:02;;;;;;;8.70;2.13;;;;;;;-145.14;100.00;70583.66;5007467;28;20454;-73
2023/08/13 09:00:27;;;;;;;7.77;2.00;;;;;;;-145.14;100.00;70583.66;5005077;28;20439;-74
2023/08/13 09:02:53;;;;;;;7.60;2.00;;;;;;;-145.14;100.00;70583.66;5010748;28;20339;-72
2023/08/13 09:05:19;;;;;;;7.53;2.20;;;;;;;-145.14;100.00;70583.66;5011193;28;20180;-73
2023/08/13 09:07:45;;;;;;;8.70;2.43;;;;;;;-145.14;100.00;70583.66;5008297;28;20239;-73
2023/08/13 09:10:11;;;;;;;8.00;1.80;;;;;;;-145.14;100.00;70583.66;5011667;28;20904;-73
2023/08/13 09:12:39;;;;;;;6.63;2.00;;;;;;;-145.14;100.00;70583.66;5011906;28;20196;-73
2023/08/13 09:15:10;;;;;;;7.63;2.43;;;;;;;-145.14;100.00;70583.66;5009749;28;20318;-72
2023/08/13 09:17:36;;;;;;;7.73;2.13;;;;;;;-145.14;100.00;70583.66;5012264;28;20447;-73
2023/08/13 09:20:22;;;;;;;7.47;2.60;;;;;;;-145.14;100.00;70583.66;5010273;28;20486;-73
2023/08/13 09:22:50;;;;;;;4.67;2.13;;;;;;;-145.14;100.00;70583.66;5012327;28;20471;-73
2023/08/13 09:25:17;;;;;;;7.80;1.93;;;;;;;-145.14;100.00;70583.66;5010580;28;20503;-73
2023/08/13 09:27:44;;;;;;;9.07;2.27;;;;;;;-145.14;100.00;70583.66;5008312;28;20525;-73
2023/08/13 09:30:14;;;;;;;7.43;1.83;;;;;;;-145.14;100.00;70583.66;5009700;28;20438;-73
2023/08/13 09:32:41;;;;;;;9.10;1.93;;;;;;;-145.14;100.00;70583.66;5011673;28;20439;-73
2023/08/13 09:35:07;;;;;;;6.40;1.93;;;;;;;-145.14;100.00;70583.66;5011493;28;20516;-73
2023/08/13 09:37:32;;;;;;;7.93;2.23;;;;;;;-145.14;100.00;70583.66;5004913;28;20889;-72
2023/08/13 09:39:58;;;;;;;2.97;1.40;;;;;;;-145.14;100.00;70583.66;5010092;28;20250;-73
2023/08/13 09:42:24;;;;;;;4.97;1.80;;;;;;;-145.14;100.00;70583.66;5015485;28;20192;-73
2023/08/13 09:44:51;;;;;;;4.63;1.80;;;;;;;-145.14;100.00;70583.66;5010008;28;20176;-74
2023/08/13 09:47:19;;;;;;;8.10;3.73;;;;;;;-145.14;100.00;70583.66;5009686;28;20684;-73
2023/08/13 09:49:46;;;;;;;8.77;2.33;;;;;;;-145.14;100.00;70583.66;5007125;28;20471;-73
2023/08/13 09:52:14;;;;;;;5.67;1.80;;;;;;;-145.14;100.00;70583.66;5005060;28;20483;-74
2023/08/13 09:54:47;;;;;;;6.37;2.20;;;;;;;-145.14;100.00;70583.66;5007101;28;20796;-75
2023/08/13 09:57:15;;;;;;;4.60;1.70;;;;;;;-145.14;100.00;70583.66;5007363;28;20492;-74
2023/08/13 09:59:41;;;;;;;6.43;2.57;;;;;;;-145.14;100.00;70583.66;5008048;28;20443;-75
2023/08/13 10:02:08;;;;;;;8.00;2.40;;;;;;;-145.14;100.00;70583.66;5008090;28;20440;-76
2023/08/13 10:04:38;;;;;;;8.80;1.80;;;;;;;-145.14;100.00;70583.66;5004064;28;20649;-74
2023/08/13 10:07:05;;;;;;;7.00;2.13;;;;;;;-145.14;100.00;70583.66;5008920;28;20468;-74
2023/08/13 10:09:31;;;;;;;5.97;1.90;;;;;;;-145.14;100.00;70583.66;5009036;28;20427;-73
2023/08/13 10:11:58;;;;;;;6.50;2.30;;;;;;;-145.14;100.00;70583.66;5011583;28;20522;-73
2023/08/13 10:14:24;;;;;;;6.17;2.40;;;;;;;-145.14;100.00;70583.66;5010071;28;20443;-72
2023/08/13 10:16:50;;;;;;;6.43;2.20;;;;;;;-145.14;100.00;70583.66;5013655;28;20454;-73
2023/08/13 10:19:17;;;;;;;4.57;1.80;;;;;;;-145.14;100.00;70583.66;5010838;28;20181;-74
2023/08/13 10:21:42;;;;;;;3.90;1.43;;;;;;;-145.14;100.00;70583.66;5017833;28;20436;-77
2023/08/13 10:24:12;;;;;;;5.20;2.00;;;;;;;-145.14;100.00;70583.66;5012638;28;21482;-74
2023/08/13 10:26:41;;;;;;;5.73;1.90;;;;;;;-145.14;100.00;70583.66;5011819;28;20216;-74
2023/08/13 10:29:19;;;;;;;7.67;2.20;;;;;;;-145.14;100.00;70583.66;5013781;28;20459;-74
2023/08/13 10:31:53;;;;;;;10.43;1.90;;;;;;;-145.14;100.00;70583.66;5013081;28;20449;-75
2023/08/13 10:34:18;;;;;;;5.53;2.00;;;;;;;-145.14;100.00;70583.66;5012998;28;20806;-74
2023/08/13 10:36:52;;;;;;;5.67;2.50;;;;;;;-145.14;100.00;70583.66;5012211;28;20451;-73
2023/08/13 10:39:42;;;;;;;5.83;1.67;;;;;;;-145.14;100.00;70583.66;5013168;28;20193;-75
2023/08/13 10:42:26;;;;;;;5.50;2.10;;;;;;;-145.14;100.00;70583.66;5017248;28;20444;-73
2023/08/13 10:44:51;;;;;;;4.43;1.20;;;;;;;-145.14;100.00;70583.66;5012858;28;20513;-74
2023/08/13 10:47:17;;;;;;;4.03;1.33;;;;;;;-145.14;100.00;70583.66;5009029;28;20976;-73
2023/08/13 10:49:42;;;;;;;5.30;1.60;;;;;;;-145.14;100.00;70583.66;5009979;28;20225;-72
2023/08/13 10:52:08;;;;;;;7.57;1.80;;;;;;;-145.14;100.00;70583.66;5009454;28;20189;-72
2023/08/13 10:54:34;;;;;;;4.57;1.30;;;;;;;-145.14;100.00;70583.66;5013053;28;20195;-73
2023/08/13 10:57:01;;;;;;;4.43;1.20;;;;;;;-145.14;100.00;70583.66;5011718;28;20281;-73
2023/08/13 10:59:39;;;;;;;6.10;2.07;;;;;;;-145.14;100.00;70583.66;5010003;28;20196;-73
2023/08/13 11:02:12;;;;;;;3.67;1.30;;;;;;;-145.14;100.00;70583.66;5022572;28;21251;-72
2023/08/13 11:04:41;;;;;;;4.80;1.60;;;;;;;-145.14;100.00;70583.66;5010308;28;20427;-72